Etusivu
METAR-TAF:

METAR-TAF

Lentoasemat :

Gogebic-Iron County Airport

Ironwood, Michigan, Yhdysvallat

Leveyspiiri: 46-32N, Pituuspiiri: 090-08W, korkeus merenpinnasta: 375 m

Tämänhetkinen sää

Tämä raportti tehtiin 31 minuuttia sitten, kello 04.56 UTC
Tuuli 4 kn lounaasta
Lämpötila -2°C
Kosteus 93%
Ilmanpaine 1006 hPa
Näkyvyys: 16.1 km
Pilvistä 700 ft:n korkeudessa

METAR: KIWD 190456Z AUTO 22004KT 10SM OVC007 M02/M03 A2971 RMK AO2 SLP075 T10221033 410061022 FZRANO

Aika: 00:27 (05:27 UTC)

Sääennuste

Tämä raportti tehtiin 1 tunti ja 21 minuuttia sitten, kello 04.06 UTC
Ennuste voimassa 19. päivästä klo 04 UTC - 19. päivään klo 24 UTC
Tuuli 5 kn etelästä
Näkyvyys: 10 km
Pilvistä 700 ft:n korkeudessa
From 19. päivästä klo 1300 UTC
Tuuli 4 kn eri suunnista
Näkyvyys: 10 km
Pilvistä 1400 ft:n korkeudessa
heikkoja lumikuuroja

TAF: KIWD 190406Z 1904/1924 18005KT P6SM OVC007 FM191300 VRB04KT P6SM -SHSN OVC014

Säähavainnot ja -ennusteet yli 4000 lentoasemalta (METAR- ja TAF-raportit).

Käytössä olevat sääasemat on merkitty karttaan keltaisilla ja punaisilla pisteillä.

Aseta hiiri pisteen päälle nähdäksesi sääaseman nimen.

Klikkaa sitten nähdäksesi säähavainnot ja -ennusteet.

Kartan vaihtaminen: klikkaa mustalla rastilla varustettuja vihreitä pisteitä, niin voit zoomata sisään; viivalla varustettua vihreää pistettä, niin voit zoomata ulos tai vihreitä nuolia, niin pääset viereisille kartoille.


METAR-TAF: